Roald Amundsen — DARG — position and weather

sailwx.info

Track history (hours):
 
Tides and Currents Weather Stations Pressure Air Temp Water Temp Dewpoint Dewpoint Depression Visibility Wind Speed Wind Dir Waves Ship Positions

Roald Amundsen (Germany)

Built as a deep sea lugger in 1952. Converted and rigged as a traditional brig in 1992.

Ship's website: http://www.sailtraining.de/

Last reported at 2017-Aug-22 22:31 UTC. Time now 2017-Aug-22 22:34 UTC.
Position N 55°06' E 014°42'.

Length 50 m; beam 7.4 m; draft 4.5 m.

Type: Sailing vessel. MMSI: 211215170.

Date/timePositionNaut miles runAvg speedWind from/ knotsBaromVisibWave heightAir tempDewpointWater temp
2017-Aug-22 22:31N 55°06' E 014°42'0 0.0
2017-Aug-22 22:01N 55°06' E 014°42'0 0.0
2017-Aug-22 21:30N 55°06' E 014°42'0 0.0
2017-Aug-22 21:01N 55°06' E 014°42'0 0.0
2017-Aug-22 20:31N 55°06' E 014°42'0 0.0
2017-Aug-22 20:01N 55°06' E 014°42'0 0.0
2017-Aug-22 19:31N 55°06' E 014°42'0 0.0
2017-Aug-22 19:00N 55°06' E 014°42'0 0.0
2017-Aug-22 18:31N 55°06' E 014°42'0 0.0
2017-Aug-22 18:00N 55°06' E 014°42'0 0.0
2017-Aug-22 17:31N 55°06' E 014°42'0 0.0
2017-Aug-22 17:01N 55°06' E 014°42'0 0.0
2017-Aug-22 16:31N 55°06' E 014°42'0 0.0
2017-Aug-22 16:01N 55°06' E 014°42'0 0.0
2017-Aug-22 15:30N 55°06' E 014°42'0 0.0
2017-Aug-22 15:01N 55°06' E 014°42'0 0.0
2017-Aug-22 14:31N 55°06' E 014°42'0 0.0
2017-Aug-22 14:01N 55°06' E 014°42'0 0.0
2017-Aug-22 13:31N 55°06' E 014°42'0 0.0
2017-Aug-22 13:01N 55°06' E 014°42'0 0.0
2017-Aug-22 12:30N 55°06' E 014°42'0 0.7
2017-Aug-22 12:01N 55°06' E 014°41'1 2.3
2017-Aug-22 11:31N 55°05' E 014°39'0 0.9
2017-Aug-22 11:01N 55°05' E 014°39'1 2.8
2017-Aug-22 10:30N 55°05' E 014°37'2 4.0
2017-Aug-22 10:01N 55°04' E 014°33'3 6.3
2017-Aug-22 09:31N 55°02' E 014°30'3 6.7
2017-Aug-22 09:00N 54°59' E 014°28'3 5.4
2017-Aug-22 08:30N 54°56' E 014°25'3 5.5
2017-Aug-22 08:00N 54°54' E 014°23'9 4.9
2017-Aug-22 06:09N 54°46' E 014°15'1 6.2
2017-Aug-22 05:57N 54°45' E 014°14'3 6.0
2017-Aug-22 05:30N 54°44' E 014°09'3 6.0
2017-Aug-22 05:00N 54°44' E 014°04'3 5.7
2017-Aug-22 04:29N 54°44' E 013°59'8 3.2
2017-Aug-22 01:52N 54°48' E 013°47'2 6.5
2017-Aug-22 01:30N 54°50' E 013°47'4 6.3
2017-Aug-22 00:53N 54°54' E 013°48'3 6.6
2017-Aug-22 00:30N 54°57' E 013°49'3 6.6
2017-Aug-22 00:00N 55°00' E 013°50'3 6.5
2017-Aug-21 23:30N 55°03' E 013°51'3 6.6
2017-Aug-21 23:00N 55°07' E 013°51'3 5.5
2017-Aug-21 22:30N 55°09' E 013°52'3 5.5
2017-Aug-21 22:00N 55°12' E 013°53'3 5.9
2017-Aug-21 21:30N 55°15' E 013°55'2 4.4
2017-Aug-21 21:00N 55°17' E 013°56'1 2.6
2017-Aug-21 20:30N 55°18' E 013°56'2 4.6
2017-Aug-21 20:00N 55°16' E 013°55'3 5.1
2017-Aug-21 19:30N 55°13' E 013°55'2 4.4
2017-Aug-21 19:00N 55°11' E 013°54'2 4.8
2017-Aug-21 18:30N 55°09' E 013°54'3 5.6
2017-Aug-21 18:00N 55°06' E 013°53'3 5.8
2017-Aug-21 17:30N 55°03' E 013°51'3 6.6
2017-Aug-21 16:59N 55°00' E 013°49'3 5.5
2017-Aug-21 16:30N 54°58' E 013°50'6 6.2
2017-Aug-21 15:31N 54°52' E 013°50'0 2.7
2017-Aug-21 15:30N 54°51' E 013°50'3 1.8
2017-Aug-21 13:34N 54°48' E 013°48'1 7.9
2017-Aug-21 13:30N 54°49' E 013°48'5 7.6
2017-Aug-21 12:53N 54°54' E 013°49'3 7.4
2017-Aug-21 12:30N 54°56' E 013°49'4 7.8
2017-Aug-21 12:00N 55°00' E 013°50'4 8.3
2017-Aug-21 11:30N 55°04' E 013°51'4 8.3
2017-Aug-21 11:00N 55°08' E 013°51'4 7.4
2017-Aug-21 10:30N 55°12' E 013°51'3 5.7
2017-Aug-21 10:00N 55°15' E 013°52'2 4.8
2017-Aug-21 09:30N 55°17' E 013°52'3 5.2
2017-Aug-21 09:00N 55°20' E 013°52'2 3.9
2017-Aug-21 08:30N 55°22' E 013°50'1 1.9
2017-Aug-21 08:00N 55°22' E 013°49'1 2.0
2017-Aug-21 07:30N 55°23' E 013°48'2 3.7
2017-Aug-21 07:00N 55°25' E 013°49'1 1.2
2017-Aug-21 06:25N 55°26' E 013°49'0 0.0
2017-Aug-21 05:55N 55°26' E 013°49'0 0.0
2017-Aug-21 05:25N 55°26' E 013°49'0 0.0
2017-Aug-21 04:55N 55°26' E 013°49'0 0.0
2017-Aug-21 04:25N 55°26' E 013°49'0 0.0
2017-Aug-21 03:55N 55°26' E 013°49'0 0.0
2017-Aug-21 03:19N 55°26' E 013°49'0 0.0
2017-Aug-21 02:55N 55°26' E 013°49'0 0.0
2017-Aug-21 02:25N 55°26' E 013°49'0 0.0
2017-Aug-21 01:55N 55°26' E 013°49'0 0.0
2017-Aug-21 01:25N 55°26' E 013°49'0 0.0
2017-Aug-21 00:55N 55°26' E 013°49'0 0.0
2017-Aug-21 00:25N 55°26' E 013°49'0 0.0
2017-Aug-20 23:55N 55°26' E 013°49'0 0.0
2017-Aug-20 23:25N 55°26' E 013°49'0 0.0
2017-Aug-20 22:55N 55°26' E 013°49'0 0.0
2017-Aug-20 22:25N 55°26' E 013°49'0 0.0
2017-Aug-20 21:55N 55°26' E 013°49'0 0.0
2017-Aug-20 21:25N 55°26' E 013°49'0 0.0
2017-Aug-20 20:49N 55°26' E 013°49'0 0.0
2017-Aug-20 20:25N 55°26' E 013°49'0 0.0
2017-Aug-20 19:55N 55°26' E 013°49'0 0.0
2017-Aug-20 19:25N 55°26' E 013°49'0 0.0
2017-Aug-20 18:55N 55°26' E 013°49'0 0.0
2017-Aug-20 18:25N 55°26' E 013°49'0 0.0
2017-Aug-20 17:55N 55°26' E 013°49'0 0.0
2017-Aug-20 17:25N 55°26' E 013°49'0 0.0
2017-Aug-20 16:55N 55°26' E 013°49'0 0.0
2017-Aug-20 16:25N 55°26' E 013°49'0 0.0
2017-Aug-20 15:55N 55°26' E 013°49'0 0.0
2017-Aug-20 15:13N 55°26' E 013°49'0 0.0
2017-Aug-20 14:55N 55°26' E 013°49'0 0.0
2017-Aug-20 14:25N 55°26' E 013°49'0 0.0
2017-Aug-20 13:49N 55°26' E 013°49'0 0.0
2017-Aug-20 13:25N 55°26' E 013°49'0 0.0
2017-Aug-20 12:55N 55°26' E 013°49'0 0.0
2017-Aug-20 12:25N 55°26' E 013°49'0 0.0
2017-Aug-20 11:55N 55°26' E 013°49'0 0.0
2017-Aug-20 11:25N 55°26' E 013°49'0 0.0
2017-Aug-20 10:55N 55°26' E 013°49'0 0.0
2017-Aug-20 10:25N 55°26' E 013°49'0 0.0
2017-Aug-20 09:55N 55°26' E 013°49'0 0.0
2017-Aug-20 09:25N 55°26' E 013°49'0 0.0
2017-Aug-20 08:55N 55°26' E 013°49'0 0.0
2017-Aug-20 08:25N 55°26' E 013°49'0 0.0
2017-Aug-20 07:55N 55°26' E 013°49'0 0.0
2017-Aug-20 07:25N 55°26' E 013°49'0 0.0
2017-Aug-20 06:55N 55°26' E 013°49'0 0.0
2017-Aug-20 06:25N 55°26' E 013°49'0 0.0
2017-Aug-20 05:49N 55°26' E 013°49'0 0.0
2017-Aug-20 05:25N 55°26' E 013°49'0 0.0
2017-Aug-20 04:49N 55°26' E 013°49'0 0.0
2017-Aug-20 04:25N 55°26' E 013°49'0 0.0
2017-Aug-20 03:55N 55°26' E 013°49'0 0.0
2017-Aug-20 03:25N 55°26' E 013°49'0 0.0
2017-Aug-20 02:49N 55°26' E 013°49'0 0.0
2017-Aug-20 02:25N 55°26' E 013°49'0 0.0
2017-Aug-20 01:55N 55°26' E 013°49'0 0.0
2017-Aug-20 01:25N 55°26' E 013°49'0 0.0
2017-Aug-20 00:55N 55°26' E 013°49'0 0.0
2017-Aug-20 00:25N 55°26' E 013°49'0 0.0
2017-Aug-19 23:55N 55°26' E 013°49'0 0.0
2017-Aug-19 23:25N 55°26' E 013°49'0 0.0
2017-Aug-19 22:55N 55°26' E 013°49'0 0.0
2017-Aug-19 22:25N 55°26' E 013°49'0 0.0
2017-Aug-19 21:55N 55°26' E 013°49'0 0.0
2017-Aug-19 21:13N 55°26' E 013°49'0 0.0
2017-Aug-19 20:55N 55°26' E 013°49'0 0.0
2017-Aug-19 20:25N 55°26' E 013°49'0 0.0
2017-Aug-19 19:55N 55°26' E 013°49'0 0.0
2017-Aug-19 19:19N 55°26' E 013°49'0 0.0
2017-Aug-19 18:55N 55°26' E 013°49'0 0.0
2017-Aug-19 18:25N 55°26' E 013°49'0 0.0
2017-Aug-19 17:55N 55°26' E 013°49'0 0.0
2017-Aug-19 17:25N 55°26' E 013°49'0 0.0
2017-Aug-19 16:55N 55°26' E 013°49'0 0.0
2017-Aug-19 16:25N 55°26' E 013°49'0 0.0
2017-Aug-19 15:55N 55°26' E 013°49'0 0.0
2017-Aug-19 15:25N 55°26' E 013°49'0 0.0
2017-Aug-19 14:55N 55°26' E 013°49'0 0.0
2017-Aug-19 13:43N 55°26' E 013°49'0 0.0
2017-Aug-19 13:25N 55°26' E 013°49'0 0.0
2017-Aug-19 12:55N 55°26' E 013°49'0 0.0
2017-Aug-19 12:19N 55°26' E 013°49'0 0.0
2017-Aug-19 11:55N 55°26' E 013°49'0 0.0
2017-Aug-19 11:25N 55°26' E 013°49'0 0.0
2017-Aug-19 10:55N 55°26' E 013°49'0 0.0
2017-Aug-19 10:25N 55°26' E 013°49'0 0.0
2017-Aug-19 09:55N 55°26' E 013°49'0 0.0
2017-Aug-19 09:25N 55°26' E 013°49'0 0.0
2017-Aug-19 08:55N 55°26' E 013°49'0 0.0
2017-Aug-19 08:25N 55°26' E 013°49'0 0.0
2017-Aug-19 07:55N 55°26' E 013°49'0 0.0
2017-Aug-19 07:25N 55°26' E 013°49'0 0.0
2017-Aug-19 06:55N 55°26' E 013°49'0 0.0
2017-Aug-19 06:25N 55°26' E 013°49'0 0.0
2017-Aug-19 05:55N 55°26' E 013°49'0 0.0
2017-Aug-19 05:25N 55°26' E 013°49'0 0.0
2017-Aug-19 04:43N 55°26' E 013°49'0 0.0
2017-Aug-19 04:25N 55°26' E 013°49'0 0.0
2017-Aug-19 03:55N 55°26' E 013°49'0 0.0
2017-Aug-19 03:19N 55°26' E 013°49'0 0.0
2017-Aug-19 02:55N 55°26' E 013°49'0 0.0
2017-Aug-19 02:25N 55°26' E 013°49'0 0.0
2017-Aug-19 01:55N 55°26' E 013°49'0 0.0
2017-Aug-19 01:25N 55°26' E 013°49'0 0.0
2017-Aug-19 00:55N 55°26' E 013°49'0 0.0
2017-Aug-19 00:25N 55°26' E 013°49'0 0.0
2017-Aug-18 23:55N 55°26' E 013°49'0 0.0
2017-Aug-18 23:25N 55°26' E 013°49'0 0.0
2017-Aug-18 22:49N 55°26' E 013°49'0 0.0
2017-Aug-18 22:19N 55°26' E 013°49'0 0.0
2017-Aug-18 21:49N 55°26' E 013°49'0 0.0
2017-Aug-18 21:25N 55°26' E 013°49'0 0.0
2017-Aug-18 20:55N 55°26' E 013°49'0 0.0
2017-Aug-18 20:19N 55°26' E 013°49'0 0.0
2017-Aug-18 19:55N 55°26' E 013°49'0 0.0
2017-Aug-18 18:49N 55°26' E 013°49'0 0.0
2017-Aug-18 18:25N 55°26' E 013°49'0 0.0
2017-Aug-18 17:55N 55°26' E 013°49'0 0.0
2017-Aug-18 17:25N 55°26' E 013°49'0 0.0
2017-Aug-18 16:55N 55°26' E 013°49'0 0.0
2017-Aug-18 16:25N 55°26' E 013°49'0 0.0
2017-Aug-18 15:55N 55°26' E 013°49'0 0.0
2017-Aug-18 15:25N 55°26' E 013°49'0 0.0
2017-Aug-18 14:49N 55°26' E 013°49'0 0.0
2017-Aug-18 14:25N 55°26' E 013°49'0 0.0
2017-Aug-18 13:25N 55°26' E 013°49'0 0.0
2017-Aug-18 12:55N 55°26' E 013°49'0 0.0
2017-Aug-18 12:25N 55°26' E 013°49'0 0.0
2017-Aug-18 11:55N 55°26' E 013°49'0 0.0
2017-Aug-18 11:30N 55°26' E 013°49'1 1.2
2017-Aug-18 11:00N 55°25' E 013°49'1 2.8
2017-Aug-18 10:30N 55°24' E 013°48'1 2.9
2017-Aug-18 10:00N 55°22' E 013°47'2 3.6
2017-Aug-18 09:30N 55°21' E 013°46'15 3.6
2017-Aug-18 05:28N 55°13' E 013°25'2 3.4
2017-Aug-18 04:57N 55°12' E 013°22'1 2.5
2017-Aug-18 04:30N 55°12' E 013°20'1 2.6
2017-Aug-18 04:00N 55°11' E 013°18'1 2.6
2017-Aug-18 03:30N 55°11' E 013°16'2 2.6
2017-Aug-18 02:40N 55°11' E 013°12'1 2.5
2017-Aug-18 02:22N 55°11' E 013°10'1 2.0
2017-Aug-18 02:00N 55°10' E 013°09'1 2.3
2017-Aug-18 01:30N 55°10' E 013°07'1 2.2
2017-Aug-18 00:52N 55°10' E 013°05'1 2.5
2017-Aug-18 00:27N 55°10' E 013°03'1 2.2
2017-Aug-18 00:00N 55°09' E 013°01'1 1.7
2017-Aug-17 23:30N 55°09' E 013°00'1 1.2
2017-Aug-17 22:46N 55°09' E 012°58'0 1.1
2017-Aug-17 22:30N 55°09' E 012°58'0 0.9
2017-Aug-17 22:00N 55°09' E 012°57'0 0.3
2017-Aug-17 21:30N 55°09' E 012°57'0 0.4
2017-Aug-17 21:00N 55°09' E 012°57'1 1.5
2017-Aug-17 20:30N 55°08' E 012°56'3 3.8
2017-Aug-17 19:41N 55°06' E 012°52'2 5.0
2017-Aug-17 19:16N 55°05' E 012°49'1 4.1
2017-Aug-17 19:00N 55°04' E 012°48'2 3.4
2017-Aug-17 18:30N 55°03' E 012°46'2 3.6
2017-Aug-17 18:00N 55°02' E 012°43'2 4.6
2017-Aug-17 17:30N 55°02' E 012°47'5 6.4
2017-Aug-17 16:43N 55°04' E 012°55'1 5.6
2017-Aug-17 16:30N 55°04' E 012°57'3 5.4
2017-Aug-17 16:00N 55°04' E 013°02'3 6.3
2017-Aug-17 15:29N 55°05' E 013°07'4 7.5
2017-Aug-17 15:00N 55°07' E 013°13'5 7.5
2017-Aug-17 14:18N 55°09' E 013°21'2 7.4
2017-Aug-17 14:00N 55°10' E 013°24'4 7.3
2017-Aug-17 13:30N 55°12' E 013°30'4 7.0
2017-Aug-17 13:00N 55°13' E 013°36'4 7.0
2017-Aug-17 12:30N 55°15' E 013°41'3 6.7
2017-Aug-17 12:00N 55°17' E 013°46'3 6.2
2017-Aug-17 11:30N 55°18' E 013°51'3 5.2
2017-Aug-17 11:00N 55°20' E 013°55'3 5.1
2017-Aug-17 10:30N 55°21' E 013°59'2 4.6
2017-Aug-17 10:00N 55°22' E 014°02'1 2.3
2017-Aug-17 09:29N 55°23' E 014°04'0 0.0
2017-Aug-17 08:59N 55°23' E 014°04'0 0.0
2017-Aug-17 08:29N 55°23' E 014°04'0 0.0
2017-Aug-17 07:59N 55°23' E 014°04'0 0.0
2017-Aug-17 07:29N 55°23' E 014°04'0 0.1
2017-Aug-17 06:56N 55°23' E 014°04'0 0.0
2017-Aug-17 06:29N 55°23' E 014°04'0 0.0
2017-Aug-17 05:59N 55°23' E 014°04'0 0.0
2017-Aug-17 05:29N 55°23' E 014°04'0 0.0
2017-Aug-17 04:59N 55°23' E 014°04'0 0.0
2017-Aug-17 04:29N 55°23' E 014°04'0 0.0
2017-Aug-17 03:59N 55°23' E 014°04'0 0.0
2017-Aug-17 03:29N 55°23' E 014°04'0 0.0
2017-Aug-17 02:59N 55°23' E 014°04'0 0.0
2017-Aug-17 02:29N 55°23' E 014°04'0 0.0
2017-Aug-17 01:59N 55°23' E 014°04'0 0.0
2017-Aug-17 01:29N 55°23' E 014°04'0 0.0
2017-Aug-17 00:59N 55°23' E 014°04'0 0.0
2017-Aug-17 00:29N 55°23' E 014°04'0 0.0
2017-Aug-16 23:53N 55°23' E 014°04'0 0.0
2017-Aug-16 23:29N 55°23' E 014°04'0 0.0
2017-Aug-16 22:59N 55°23' E 014°04'0 0.0
2017-Aug-16 22:23N 55°23' E 014°04'0 0.0
2017-Aug-16 21:59N 55°23' E 014°04'0 0.0
2017-Aug-16 21:29N 55°23' E 014°04'0 0.0
2017-Aug-16 20:59N 55°23' E 014°04'0 0.0
2017-Aug-16 20:29N 55°23' E 014°04'0 0.0
2017-Aug-16 20:00N 55°23' E 014°04'0 0.0
2017-Aug-16 19:30N 55°23' E 014°04'0 0.0
2017-Aug-16 19:00N 55°23' E 014°04'0 0.0
2017-Aug-16 18:30N 55°23' E 014°04'0 0.0
2017-Aug-16 18:00N 55°23' E 014°04'0 0.0
2017-Aug-16 17:30N 55°23' E 014°04'0 0.0
2017-Aug-16 17:00N 55°23' E 014°04'0 0.0
2017-Aug-16 16:30N 55°23' E 014°04'0 0.0
2017-Aug-16 16:00N 55°23' E 014°04'0 0.0
2017-Aug-16 15:30N 55°23' E 014°04'0 0.0
2017-Aug-16 15:00N 55°23' E 014°04'0 0.0
2017-Aug-16 14:30N 55°23' E 014°04'0 0.0
2017-Aug-16 14:00N 55°23' E 014°04'0 0.0
2017-Aug-16 13:30N 55°23' E 014°04'1 1.6
2017-Aug-16 13:00N 55°23' E 014°03'1 2.8
2017-Aug-16 12:30N 55°23' E 014°00'2 3.9
2017-Aug-16 11:57N 55°22' E 013°57'20 4.4
2017-Aug-16 07:24N 55°15' E 013°24'1 3.6
2017-Aug-16 07:00N 55°15' E 013°21'2 4.3
2017-Aug-16 06:27N 55°14' E 013°17'2 4.0
2017-Aug-16 06:00N 55°14' E 013°14'2 3.2
2017-Aug-16 05:30N 55°14' E 013°11'1 1.9
2017-Aug-16 05:00N 55°14' E 013°10'1 1.0
2017-Aug-16 04:29N 55°14' E 013°09'0 1.0
2017-Aug-16 04:00N 55°14' E 013°08'0 0.2
2017-Aug-16 03:30N 55°14' E 013°08'0 0.4
2017-Aug-16 03:00N 55°15' E 013°08'0 0.5
2017-Aug-16 02:30N 55°15' E 013°07'1 1.3
2017-Aug-16 02:00N 55°15' E 013°06'1 1.1
2017-Aug-16 01:30N 55°15' E 013°05'0 0.6
2017-Aug-16 00:59N 55°15' E 013°05'0 1.0
2017-Aug-16 00:30N 55°15' E 013°04'1 1.0
2017-Aug-15 23:35N 55°14' E 013°06'0 1.0
2017-Aug-15 23:28N 55°14' E 013°06'1 1.1
2017-Aug-15 23:00N 55°14' E 013°07'1 1.4
2017-Aug-15 22:30N 55°15' E 013°08'1 2.3
2017-Aug-15 22:00N 55°15' E 013°10'1 2.8
2017-Aug-15 21:30N 55°14' E 013°08'1 2.7
2017-Aug-15 21:00N 55°13' E 013°07'1 2.9
2017-Aug-15 20:30N 55°12' E 013°05'1 2.8
2017-Aug-15 20:00N 55°11' E 013°04'3 6.0
2017-Aug-15 19:30N 55°08' E 013°03'4 6.4
2017-Aug-15 18:57N 55°04' E 013°02'3 6.3
2017-Aug-15 18:30N 55°02' E 013°01'3 6.8
2017-Aug-15 18:00N 54°58' E 013°01'3 6.9
2017-Aug-15 17:30N 54°55' E 012°60'4 7.9
2017-Aug-15 17:00N 54°51' E 012°59'4 7.2
2017-Aug-15 16:30N 54°47' E 012°59'3 5.6
2017-Aug-15 16:00N 54°45' E 012°57'3 5.6
2017-Aug-15 15:30N 54°43' E 012°53'3 5.2
2017-Aug-15 15:00N 54°41' E 012°50'3 5.2
2017-Aug-15 14:30N 54°39' E 012°47'4 6.1
2017-Aug-15 13:55N 54°36' E 012°43'3 4.9
2017-Aug-15 13:17N 54°34' E 012°39'1 2.8
2017-Aug-15 13:00N 54°34' E 012°38'9 5.0
2017-Aug-15 11:17N 54°28' E 012°26'2 6.1
2017-Aug-15 11:00N 54°27' E 012°25'4 5.3
2017-Aug-15 10:14N 54°23' E 012°21'2 6.4
2017-Aug-15 09:56N 54°22' E 012°19'8 6.0
2017-Aug-15 08:40N 54°17' E 012°09'1 5.8
2017-Aug-15 08:30N 54°16' E 012°08'3 5.0
2017-Aug-15 07:59N 54°15' E 012°05'2 3.6
2017-Aug-15 07:30N 54°14' E 012°02'1 1.3
2017-Aug-15 07:00N 54°13' E 012°01'0 0.1
2017-Aug-15 06:30N 54°13' E 012°01'0 0.0
2017-Aug-15 05:32N 54°13' E 012°01'0 0.1
2017-Aug-15 05:30N 54°13' E 012°01'0 0.0
2017-Aug-15 05:00N 54°13' E 012°01'0 0.0
2017-Aug-15 04:29N 54°13' E 012°01'0 0.0
2017-Aug-15 04:00N 54°13' E 012°01'0 0.0
2017-Aug-15 02:42N 54°13' E 012°01'0 0.0
2017-Aug-15 02:30N 54°13' E 012°01'0 0.0
2017-Aug-15 01:30N 54°13' E 012°01'0 0.0
2017-Aug-15 00:53N 54°13' E 012°01'0 0.0
2017-Aug-14 23:34N 54°13' E 012°01'0 0.0
2017-Aug-14 23:29N 54°13' E 012°01'0 0.0
2017-Aug-14 22:53N 54°13' E 012°01'0 0.0
2017-Aug-14 22:27N 54°13' E 012°01'0 0.0
2017-Aug-14 20:06N 54°13' E 012°01'0 0.0
2017-Aug-14 19:55N 54°13' E 012°01'0 0.0
2017-Aug-14 19:30N 54°13' E 012°01'0 0.0
2017-Aug-14 19:00N 54°13' E 012°01'0 0.0
2017-Aug-14 18:24N 54°13' E 012°01'0 0.0
2017-Aug-14 17:55N 54°13' E 012°01'0 0.0
2017-Aug-14 17:29N 54°13' E 012°01'0 0.0
2017-Aug-14 17:00N 54°13' E 012°01'7 4.0
2017-Aug-14 15:14N 54°07' E 012°06'1 1.6
2017-Aug-14 14:45N 54°06' E 012°06'0 0.0
2017-Aug-14 14:30N 54°06' E 012°06'0 0.0
2017-Aug-14 14:00N 54°06' E 012°06'0 0.0
2017-Aug-14 04:50N 54°06' E 012°06'0 0.0
2017-Aug-14 02:11N 54°06' E 012°06'0 0.0
2017-Aug-14 01:59N 54°06' E 012°06'0 0.0
2017-Aug-14 01:11N 54°06' E 012°06'0 0.0
2017-Aug-13 15:29N 54°06' E 012°06'0 0.0
2017-Aug-13 14:19N 54°06' E 012°06'0 0.6
2017-Aug-13 14:00N 54°06' E 012°07'3 4.5
2017-Aug-13 13:14N 54°09' E 012°06'1 4.1
2017-Aug-13 13:00N 54°10' E 012°06'3 5.3
2017-Aug-13 12:30N 54°13' E 012°05'2 3.5
2017-Aug-13 11:52N 54°15' E 012°05'1 3.4
2017-Aug-13 11:27N 54°16' E 012°05'2 1.9
2017-Aug-13 10:14N 54°14' E 012°05'1 3.8
2017-Aug-13 10:00N 54°13' E 012°05'3 5.1
2017-Aug-13 09:29N 54°11' E 012°06'3 4.6
2017-Aug-13 08:47N 54°07' E 012°06'1 3.0
2017-Aug-13 08:28N 54°06' E 012°06'1 0.3
2017-Aug-13 05:47N 54°06' E 012°06'0 0.0
2017-Aug-13 05:29N 54°06' E 012°06'0 0.0
2017-Aug-13 04:56N 54°06' E 012°06'0 0.0
2017-Aug-13 01:20N 54°06' E 012°06'  
Track history (hours):
 
Tides and Currents Weather Stations Pressure Air Temp Water Temp Dewpoint Dewpoint Depression Visibility Wind Speed Wind Dir Waves Ship Positions

Roald Amundsen (Germany)

Built as a deep sea lugger in 1952. Converted and rigged as a traditional brig in 1992.

Ship's website: http://www.sailtraining.de/

Last reported at 2017-Aug-22 22:31 UTC. Time now 2017-Aug-22 22:34 UTC.
Position N 55°06' E 014°42'.

Length 50 m; beam 7.4 m; draft 4.5 m.

Type: Sailing vessel. MMSI: 211215170.

Date/timePositionNaut miles runAvg speedWind from/ knotsBaromVisibWave heightAir tempDewpointWater temp
2017-Aug-22 22:31N 55°06' E 014°42'0 0.0
2017-Aug-22 22:01N 55°06' E 014°42'0 0.0
2017-Aug-22 21:30N 55°06' E 014°42'0 0.0
2017-Aug-22 21:01N 55°06' E 014°42'0 0.0
2017-Aug-22 20:31N 55°06' E 014°42'0 0.0
2017-Aug-22 20:01N 55°06' E 014°42'0 0.0
2017-Aug-22 19:31N 55°06' E 014°42'0 0.0
2017-Aug-22 19:00N 55°06' E 014°42'0 0.0
2017-Aug-22 18:31N 55°06' E 014°42'0 0.0
2017-Aug-22 18:00N 55°06' E 014°42'0 0.0
2017-Aug-22 17:31N 55°06' E 014°42'0 0.0
2017-Aug-22 17:01N 55°06' E 014°42'0 0.0
2017-Aug-22 16:31N 55°06' E 014°42'0 0.0
2017-Aug-22 16:01N 55°06' E 014°42'0 0.0
2017-Aug-22 15:30N 55°06' E 014°42'0 0.0
2017-Aug-22 15:01N 55°06' E 014°42'0 0.0
2017-Aug-22 14:31N 55°06' E 014°42'0 0.0
2017-Aug-22 14:01N 55°06' E 014°42'0 0.0
2017-Aug-22 13:31N 55°06' E 014°42'0 0.0
2017-Aug-22 13:01N 55°06' E 014°42'0 0.0
2017-Aug-22 12:30N 55°06' E 014°42'0 0.7
2017-Aug-22 12:01N 55°06' E 014°41'1 2.3
2017-Aug-22 11:31N 55°05' E 014°39'0 0.9
2017-Aug-22 11:01N 55°05' E 014°39'1 2.8
2017-Aug-22 10:30N 55°05' E 014°37'2 4.0
2017-Aug-22 10:01N 55°04' E 014°33'3 6.3
2017-Aug-22 09:31N 55°02' E 014°30'3 6.7
2017-Aug-22 09:00N 54°59' E 014°28'3 5.4
2017-Aug-22 08:30N 54°56' E 014°25'3 5.5
2017-Aug-22 08:00N 54°54' E 014°23'9 4.9
2017-Aug-22 06:09N 54°46' E 014°15'1 6.2
2017-Aug-22 05:57N 54°45' E 014°14'3 6.0
2017-Aug-22 05:30N 54°44' E 014°09'3 6.0
2017-Aug-22 05:00N 54°44' E 014°04'3 5.7
2017-Aug-22 04:29N 54°44' E 013°59'8 3.2
2017-Aug-22 01:52N 54°48' E 013°47'2 6.5
2017-Aug-22 01:30N 54°50' E 013°47'4 6.3
2017-Aug-22 00:53N 54°54' E 013°48'3 6.6
2017-Aug-22 00:30N 54°57' E 013°49'3 6.6
2017-Aug-22 00:00N 55°00' E 013°50'3 6.5
2017-Aug-21 23:30N 55°03' E 013°51'3 6.6
2017-Aug-21 23:00N 55°07' E 013°51'3 5.5
2017-Aug-21 22:30N 55°09' E 013°52'3 5.5
2017-Aug-21 22:00N 55°12' E 013°53'3 5.9
2017-Aug-21 21:30N 55°15' E 013°55'2 4.4
2017-Aug-21 21:00N 55°17' E 013°56'1 2.6
2017-Aug-21 20:30N 55°18' E 013°56'2 4.6
2017-Aug-21 20:00N 55°16' E 013°55'3 5.1
2017-Aug-21 19:30N 55°13' E 013°55'2 4.4
2017-Aug-21 19:00N 55°11' E 013°54'2 4.8
2017-Aug-21 18:30N 55°09' E 013°54'3 5.6
2017-Aug-21 18:00N 55°06' E 013°53'3 5.8
2017-Aug-21 17:30N 55°03' E 013°51'3 6.6
2017-Aug-21 16:59N 55°00' E 013°49'3 5.5
2017-Aug-21 16:30N 54°58' E 013°50'6 6.2
2017-Aug-21 15:31N 54°52' E 013°50'0 2.7
2017-Aug-21 15:30N 54°51' E 013°50'3 1.8
2017-Aug-21 13:34N 54°48' E 013°48'1 7.9
2017-Aug-21 13:30N 54°49' E 013°48'5 7.6
2017-Aug-21 12:53N 54°54' E 013°49'3 7.4
2017-Aug-21 12:30N 54°56' E 013°49'4 7.8
2017-Aug-21 12:00N 55°00' E 013°50'4 8.3
2017-Aug-21 11:30N 55°04' E 013°51'4 8.3
2017-Aug-21 11:00N 55°08' E 013°51'4 7.4
2017-Aug-21 10:30N 55°12' E 013°51'3 5.7
2017-Aug-21 10:00N 55°15' E 013°52'2 4.8
2017-Aug-21 09:30N 55°17' E 013°52'3 5.2
2017-Aug-21 09:00N 55°20' E 013°52'2 3.9
2017-Aug-21 08:30N 55°22' E 013°50'1 1.9
2017-Aug-21 08:00N 55°22' E 013°49'1 2.0
2017-Aug-21 07:30N 55°23' E 013°48'2 3.7
2017-Aug-21 07:00N 55°25' E 013°49'1 1.2
2017-Aug-21 06:25N 55°26' E 013°49'0 0.0
2017-Aug-21 05:55N 55°26' E 013°49'0 0.0
2017-Aug-21 05:25N 55°26' E 013°49'0 0.0
2017-Aug-21 04:55N 55°26' E 013°49'0 0.0
2017-Aug-21 04:25N 55°26' E 013°49'0 0.0
2017-Aug-21 03:55N 55°26' E 013°49'0 0.0
2017-Aug-21 03:19N 55°26' E 013°49'0 0.0
2017-Aug-21 02:55N 55°26' E 013°49'0 0.0
2017-Aug-21 02:25N 55°26' E 013°49'0 0.0
2017-Aug-21 01:55N 55°26' E 013°49'0 0.0
2017-Aug-21 01:25N 55°26' E 013°49'0 0.0
2017-Aug-21 00:55N 55°26' E 013°49'0 0.0
2017-Aug-21 00:25N 55°26' E 013°49'0 0.0
2017-Aug-20 23:55N 55°26' E 013°49'0 0.0
2017-Aug-20 23:25N 55°26' E 013°49'0 0.0
2017-Aug-20 22:55N 55°26' E 013°49'0 0.0
2017-Aug-20 22:25N 55°26' E 013°49'0 0.0
2017-Aug-20 21:55N 55°26' E 013°49'0 0.0
2017-Aug-20 21:25N 55°26' E 013°49'0 0.0
2017-Aug-20 20:49N 55°26' E 013°49'0 0.0
2017-Aug-20 20:25N 55°26' E 013°49'0 0.0
2017-Aug-20 19:55N 55°26' E 013°49'0 0.0
2017-Aug-20 19:25N 55°26' E 013°49'0 0.0
2017-Aug-20 18:55N 55°26' E 013°49'0 0.0
2017-Aug-20 18:25N 55°26' E 013°49'0 0.0
2017-Aug-20 17:55N 55°26' E 013°49'0 0.0
2017-Aug-20 17:25N 55°26' E 013°49'0 0.0
2017-Aug-20 16:55N 55°26' E 013°49'0 0.0
2017-Aug-20 16:25N 55°26' E 013°49'0 0.0
2017-Aug-20 15:55N 55°26' E 013°49'0 0.0
2017-Aug-20 15:13N 55°26' E 013°49'0 0.0
2017-Aug-20 14:55N 55°26' E 013°49'0 0.0
2017-Aug-20 14:25N 55°26' E 013°49'0 0.0
2017-Aug-20 13:49N 55°26' E 013°49'0 0.0
2017-Aug-20 13:25N 55°26' E 013°49'0 0.0
2017-Aug-20 12:55N 55°26' E 013°49'0 0.0
2017-Aug-20 12:25N 55°26' E 013°49'0 0.0
2017-Aug-20 11:55N 55°26' E 013°49'0 0.0
2017-Aug-20 11:25N 55°26' E 013°49'0 0.0
2017-Aug-20 10:55N 55°26' E 013°49'0 0.0
2017-Aug-20 10:25N 55°26' E 013°49'0 0.0
2017-Aug-20 09:55N 55°26' E 013°49'0 0.0
2017-Aug-20 09:25N 55°26' E 013°49'0 0.0
2017-Aug-20 08:55N 55°26' E 013°49'0 0.0
2017-Aug-20 08:25N 55°26' E 013°49'0 0.0
2017-Aug-20 07:55N 55°26' E 013°49'0 0.0
2017-Aug-20 07:25N 55°26' E 013°49'0 0.0
2017-Aug-20 06:55N 55°26' E 013°49'0 0.0
2017-Aug-20 06:25N 55°26' E 013°49'0 0.0
2017-Aug-20 05:49N 55°26' E 013°49'0 0.0
2017-Aug-20 05:25N 55°26' E 013°49'0 0.0
2017-Aug-20 04:49N 55°26' E 013°49'0 0.0
2017-Aug-20 04:25N 55°26' E 013°49'0 0.0
2017-Aug-20 03:55N 55°26' E 013°49'0 0.0
2017-Aug-20 03:25N 55°26' E 013°49'0 0.0
2017-Aug-20 02:49N 55°26' E 013°49'0 0.0
2017-Aug-20 02:25N 55°26' E 013°49'0 0.0
2017-Aug-20 01:55N 55°26' E 013°49'0 0.0
2017-Aug-20 01:25N 55°26' E 013°49'0 0.0
2017-Aug-20 00:55N 55°26' E 013°49'0 0.0
2017-Aug-20 00:25N 55°26' E 013°49'0 0.0
2017-Aug-19 23:55N 55°26' E 013°49'0 0.0
2017-Aug-19 23:25N 55°26' E 013°49'0 0.0
2017-Aug-19 22:55N 55°26' E 013°49'0 0.0
2017-Aug-19 22:25N 55°26' E 013°49'0 0.0
2017-Aug-19 21:55N 55°26' E 013°49'0 0.0
2017-Aug-19 21:13N 55°26' E 013°49'0 0.0
2017-Aug-19 20:55N 55°26' E 013°49'0 0.0
2017-Aug-19 20:25N 55°26' E 013°49'0 0.0
2017-Aug-19 19:55N 55°26' E 013°49'0 0.0
2017-Aug-19 19:19N 55°26' E 013°49'0 0.0
2017-Aug-19 18:55N 55°26' E 013°49'0 0.0
2017-Aug-19 18:25N 55°26' E 013°49'0 0.0
2017-Aug-19 17:55N 55°26' E 013°49'0 0.0
2017-Aug-19 17:25N 55°26' E 013°49'0 0.0
2017-Aug-19 16:55N 55°26' E 013°49'0 0.0
2017-Aug-19 16:25N 55°26' E 013°49'0 0.0
2017-Aug-19 15:55N 55°26' E 013°49'0 0.0
2017-Aug-19 15:25N 55°26' E 013°49'0 0.0
2017-Aug-19 14:55N 55°26' E 013°49'0 0.0
2017-Aug-19 13:43N 55°26' E 013°49'0 0.0
2017-Aug-19 13:25N 55°26' E 013°49'0 0.0
2017-Aug-19 12:55N 55°26' E 013°49'0 0.0
2017-Aug-19 12:19N 55°26' E 013°49'0 0.0
2017-Aug-19 11:55N 55°26' E 013°49'0 0.0
2017-Aug-19 11:25N 55°26' E 013°49'0 0.0
2017-Aug-19 10:55N 55°26' E 013°49'0 0.0
2017-Aug-19 10:25N 55°26' E 013°49'0 0.0
2017-Aug-19 09:55N 55°26' E 013°49'0 0.0
2017-Aug-19 09:25N 55°26' E 013°49'0 0.0
2017-Aug-19 08:55N 55°26' E 013°49'0 0.0
2017-Aug-19 08:25N 55°26' E 013°49'0 0.0
2017-Aug-19 07:55N 55°26' E 013°49'0 0.0
2017-Aug-19 07:25N 55°26' E 013°49'0 0.0
2017-Aug-19 06:55N 55°26' E 013°49'0 0.0
2017-Aug-19 06:25N 55°26' E 013°49'0 0.0
2017-Aug-19 05:55N 55°26' E 013°49'0 0.0
2017-Aug-19 05:25N 55°26' E 013°49'0 0.0
2017-Aug-19 04:43N 55°26' E 013°49'0 0.0
2017-Aug-19 04:25N 55°26' E 013°49'0 0.0
2017-Aug-19 03:55N 55°26' E 013°49'0 0.0
2017-Aug-19 03:19N 55°26' E 013°49'0 0.0
2017-Aug-19 02:55N 55°26' E 013°49'0 0.0
2017-Aug-19 02:25N 55°26' E 013°49'0 0.0
2017-Aug-19 01:55N 55°26' E 013°49'0 0.0
2017-Aug-19 01:25N 55°26' E 013°49'0 0.0
2017-Aug-19 00:55N 55°26' E 013°49'0 0.0
2017-Aug-19 00:25N 55°26' E 013°49'0 0.0
2017-Aug-18 23:55N 55°26' E 013°49'0 0.0
2017-Aug-18 23:25N 55°26' E 013°49'0 0.0
2017-Aug-18 22:49N 55°26' E 013°49'0 0.0
2017-Aug-18 22:19N 55°26' E 013°49'0 0.0
2017-Aug-18 21:49N 55°26' E 013°49'0 0.0
2017-Aug-18 21:25N 55°26' E 013°49'0 0.0
2017-Aug-18 20:55N 55°26' E 013°49'0 0.0
2017-Aug-18 20:19N 55°26' E 013°49'0 0.0
2017-Aug-18 19:55N 55°26' E 013°49'0 0.0
2017-Aug-18 18:49N 55°26' E 013°49'0 0.0
2017-Aug-18 18:25N 55°26' E 013°49'0 0.0
2017-Aug-18 17:55N 55°26' E 013°49'0 0.0
2017-Aug-18 17:25N 55°26' E 013°49'0 0.0
2017-Aug-18 16:55N 55°26' E 013°49'0 0.0
2017-Aug-18 16:25N 55°26' E 013°49'0 0.0
2017-Aug-18 15:55N 55°26' E 013°49'0 0.0
2017-Aug-18 15:25N 55°26' E 013°49'0 0.0
2017-Aug-18 14:49N 55°26' E 013°49'0 0.0
2017-Aug-18 14:25N 55°26' E 013°49'0 0.0
2017-Aug-18 13:25N 55°26' E 013°49'0 0.0
2017-Aug-18 12:55N 55°26' E 013°49'0 0.0
2017-Aug-18 12:25N 55°26' E 013°49'0 0.0
2017-Aug-18 11:55N 55°26' E 013°49'0 0.0
2017-Aug-18 11:30N 55°26' E 013°49'1 1.2
2017-Aug-18 11:00N 55°25' E 013°49'1 2.8
2017-Aug-18 10:30N 55°24' E 013°48'1 2.9
2017-Aug-18 10:00N 55°22' E 013°47'2 3.6
2017-Aug-18 09:30N 55°21' E 013°46'15 3.6
2017-Aug-18 05:28N 55°13' E 013°25'2 3.4
2017-Aug-18 04:57N 55°12' E 013°22'1 2.5
2017-Aug-18 04:30N 55°12' E 013°20'1 2.6
2017-Aug-18 04:00N 55°11' E 013°18'1 2.6
2017-Aug-18 03:30N 55°11' E 013°16'2 2.6
2017-Aug-18 02:40N 55°11' E 013°12'1 2.5
2017-Aug-18 02:22N 55°11' E 013°10'1 2.0
2017-Aug-18 02:00N 55°10' E 013°09'1 2.3
2017-Aug-18 01:30N 55°10' E 013°07'1 2.2
2017-Aug-18 00:52N 55°10' E 013°05'1 2.5
2017-Aug-18 00:27N 55°10' E 013°03'1 2.2
2017-Aug-18 00:00N 55°09' E 013°01'1 1.7
2017-Aug-17 23:30N 55°09' E 013°00'1 1.2
2017-Aug-17 22:46N 55°09' E 012°58'0 1.1
2017-Aug-17 22:30N 55°09' E 012°58'0 0.9
2017-Aug-17 22:00N 55°09' E 012°57'0 0.3
2017-Aug-17 21:30N 55°09' E 012°57'0 0.4
2017-Aug-17 21:00N 55°09' E 012°57'1 1.5
2017-Aug-17 20:30N 55°08' E 012°56'3 3.8
2017-Aug-17 19:41N 55°06' E 012°52'2 5.0
2017-Aug-17 19:16N 55°05' E 012°49'1 4.1
2017-Aug-17 19:00N 55°04' E 012°48'2 3.4
2017-Aug-17 18:30N 55°03' E 012°46'2 3.6
2017-Aug-17 18:00N 55°02' E 012°43'2 4.6
2017-Aug-17 17:30N 55°02' E 012°47'5 6.4
2017-Aug-17 16:43N 55°04' E 012°55'1 5.6
2017-Aug-17 16:30N 55°04' E 012°57'3 5.4
2017-Aug-17 16:00N 55°04' E 013°02'3 6.3
2017-Aug-17 15:29N 55°05' E 013°07'4 7.5
2017-Aug-17 15:00N 55°07' E 013°13'5 7.5
2017-Aug-17 14:18N 55°09' E 013°21'2 7.4
2017-Aug-17 14:00N 55°10' E 013°24'4 7.3
2017-Aug-17 13:30N 55°12' E 013°30'4 7.0
2017-Aug-17 13:00N 55°13' E 013°36'4 7.0
2017-Aug-17 12:30N 55°15' E 013°41'3 6.7
2017-Aug-17 12:00N 55°17' E 013°46'3 6.2
2017-Aug-17 11:30N 55°18' E 013°51'3 5.2
2017-Aug-17 11:00N 55°20' E 013°55'3 5.1
2017-Aug-17 10:30N 55°21' E 013°59'2 4.6
2017-Aug-17 10:00N 55°22' E 014°02'1 2.3
2017-Aug-17 09:29N 55°23' E 014°04'0 0.0
2017-Aug-17 08:59N 55°23' E 014°04'0 0.0
2017-Aug-17 08:29N 55°23' E 014°04'0 0.0
2017-Aug-17 07:59N 55°23' E 014°04'0 0.0
2017-Aug-17 07:29N 55°23' E 014°04'0 0.1
2017-Aug-17 06:56N 55°23' E 014°04'0 0.0
2017-Aug-17 06:29N 55°23' E 014°04'0 0.0
2017-Aug-17 05:59N 55°23' E 014°04'0 0.0
2017-Aug-17 05:29N 55°23' E 014°04'0 0.0
2017-Aug-17 04:59N 55°23' E 014°04'0 0.0
2017-Aug-17 04:29N 55°23' E 014°04'0 0.0
2017-Aug-17 03:59N 55°23' E 014°04'0 0.0
2017-Aug-17 03:29N 55°23' E 014°04'0 0.0
2017-Aug-17 02:59N 55°23' E 014°04'0 0.0
2017-Aug-17 02:29N 55°23' E 014°04'0 0.0
2017-Aug-17 01:59N 55°23' E 014°04'0 0.0
2017-Aug-17 01:29N 55°23' E 014°04'0 0.0
2017-Aug-17 00:59N 55°23' E 014°04'0 0.0
2017-Aug-17 00:29N 55°23' E 014°04'0 0.0
2017-Aug-16 23:53N 55°23' E 014°04'0 0.0
2017-Aug-16 23:29N 55°23' E 014°04'0 0.0
2017-Aug-16 22:59N 55°23' E 014°04'0 0.0
2017-Aug-16 22:23N 55°23' E 014°04'0 0.0
2017-Aug-16 21:59N 55°23' E 014°04'0 0.0
2017-Aug-16 21:29N 55°23' E 014°04'0 0.0
2017-Aug-16 20:59N 55°23' E 014°04'0 0.0
2017-Aug-16 20:29N 55°23' E 014°04'0 0.0
2017-Aug-16 20:00N 55°23' E 014°04'0 0.0
2017-Aug-16 19:30N 55°23' E 014°04'0 0.0
2017-Aug-16 19:00N 55°23' E 014°04'0 0.0
2017-Aug-16 18:30N 55°23' E 014°04'0 0.0
2017-Aug-16 18:00N 55°23' E 014°04'0 0.0
2017-Aug-16 17:30N 55°23' E 014°04'0 0.0
2017-Aug-16 17:00N 55°23' E 014°04'0 0.0
2017-Aug-16 16:30N 55°23' E 014°04'0 0.0
2017-Aug-16 16:00N 55°23' E 014°04'0 0.0
2017-Aug-16 15:30N 55°23' E 014°04'0 0.0
2017-Aug-16 15:00N 55°23' E 014°04'0 0.0
2017-Aug-16 14:30N 55°23' E 014°04'0 0.0
2017-Aug-16 14:00N 55°23' E 014°04'0 0.0
2017-Aug-16 13:30N 55°23' E 014°04'1 1.6
2017-Aug-16 13:00N 55°23' E 014°03'1 2.8
2017-Aug-16 12:30N 55°23' E 014°00'2 3.9
2017-Aug-16 11:57N 55°22' E 013°57'20 4.4
2017-Aug-16 07:24N 55°15' E 013°24'1 3.6
2017-Aug-16 07:00N 55°15' E 013°21'2 4.3
2017-Aug-16 06:27N 55°14' E 013°17'2 4.0
2017-Aug-16 06:00N 55°14' E 013°14'2 3.2
2017-Aug-16 05:30N 55°14' E 013°11'1 1.9
2017-Aug-16 05:00N 55°14' E 013°10'1 1.0
2017-Aug-16 04:29N 55°14' E 013°09'0 1.0
2017-Aug-16 04:00N 55°14' E 013°08'0 0.2
2017-Aug-16 03:30N 55°14' E 013°08'0 0.4
2017-Aug-16 03:00N 55°15' E 013°08'0 0.5
2017-Aug-16 02:30N 55°15' E 013°07'1 1.3
2017-Aug-16 02:00N 55°15' E 013°06'1 1.1
2017-Aug-16 01:30N 55°15' E 013°05'0 0.6
2017-Aug-16 00:59N 55°15' E 013°05'0 1.0
2017-Aug-16 00:30N 55°15' E 013°04'1 1.0
2017-Aug-15 23:35N 55°14' E 013°06'0 1.0
2017-Aug-15 23:28N 55°14' E 013°06'1 1.1
2017-Aug-15 23:00N 55°14' E 013°07'1 1.4
2017-Aug-15 22:30N 55°15' E 013°08'1 2.3
2017-Aug-15 22:00N 55°15' E 013°10'1 2.8
2017-Aug-15 21:30N 55°14' E 013°08'1 2.7
2017-Aug-15 21:00N 55°13' E 013°07'1 2.9
2017-Aug-15 20:30N 55°12' E 013°05'1 2.8
2017-Aug-15 20:00N 55°11' E 013°04'3 6.0
2017-Aug-15 19:30N 55°08' E 013°03'4 6.4
2017-Aug-15 18:57N 55°04' E 013°02'3 6.3
2017-Aug-15 18:30N 55°02' E 013°01'3 6.8
2017-Aug-15 18:00N 54°58' E 013°01'3 6.9
2017-Aug-15 17:30N 54°55' E 012°60'4 7.9
2017-Aug-15 17:00N 54°51' E 012°59'4 7.2
2017-Aug-15 16:30N 54°47' E 012°59'3 5.6
2017-Aug-15 16:00N 54°45' E 012°57'3 5.6
2017-Aug-15 15:30N 54°43' E 012°53'3 5.2
2017-Aug-15 15:00N 54°41' E 012°50'3 5.2
2017-Aug-15 14:30N 54°39' E 012°47'4 6.1
2017-Aug-15 13:55N 54°36' E 012°43'3 4.9
2017-Aug-15 13:17N 54°34' E 012°39'1 2.8
2017-Aug-15 13:00N 54°34' E 012°38'9 5.0
2017-Aug-15 11:17N 54°28' E 012°26'2 6.1
2017-Aug-15 11:00N 54°27' E 012°25'4 5.3
2017-Aug-15 10:14N 54°23' E 012°21'2 6.4
2017-Aug-15 09:56N 54°22' E 012°19'8 6.0
2017-Aug-15 08:40N 54°17' E 012°09'1 5.8
2017-Aug-15 08:30N 54°16' E 012°08'3 5.0
2017-Aug-15 07:59N 54°15' E 012°05'2 3.6
2017-Aug-15 07:30N 54°14' E 012°02'1 1.3
2017-Aug-15 07:00N 54°13' E 012°01'0 0.1
2017-Aug-15 06:30N 54°13' E 012°01'0 0.0
2017-Aug-15 05:32N 54°13' E 012°01'0 0.1
2017-Aug-15 05:30N 54°13' E 012°01'0 0.0
2017-Aug-15 05:00N 54°13' E 012°01'0 0.0
2017-Aug-15 04:29N 54°13' E 012°01'0 0.0
2017-Aug-15 04:00N 54°13' E 012°01'0 0.0
2017-Aug-15 02:42N 54°13' E 012°01'0 0.0
2017-Aug-15 02:30N 54°13' E 012°01'0 0.0
2017-Aug-15 01:30N 54°13' E 012°01'0 0.0
2017-Aug-15 00:53N 54°13' E 012°01'0 0.0
2017-Aug-14 23:34N 54°13' E 012°01'0 0.0
2017-Aug-14 23:29N 54°13' E 012°01'0 0.0
2017-Aug-14 22:53N 54°13' E 012°01'0 0.0
2017-Aug-14 22:27N 54°13' E 012°01'0 0.0
2017-Aug-14 20:06N 54°13' E 012°01'0 0.0
2017-Aug-14 19:55N 54°13' E 012°01'0 0.0
2017-Aug-14 19:30N 54°13' E 012°01'0 0.0
2017-Aug-14 19:00N 54°13' E 012°01'0 0.0
2017-Aug-14 18:24N 54°13' E 012°01'0 0.0
2017-Aug-14 17:55N 54°13' E 012°01'0 0.0
2017-Aug-14 17:29N 54°13' E 012°01'0 0.0
2017-Aug-14 17:00N 54°13' E 012°01'7 4.0
2017-Aug-14 15:14N 54°07' E 012°06'1 1.6
2017-Aug-14 14:45N 54°06' E 012°06'0 0.0
2017-Aug-14 14:30N 54°06' E 012°06'0 0.0
2017-Aug-14 14:00N 54°06' E 012°06'0 0.0
2017-Aug-14 04:50N 54°06' E 012°06'0 0.0
2017-Aug-14 02:11N 54°06' E 012°06'0 0.0
2017-Aug-14 01:59N 54°06' E 012°06'0 0.0
2017-Aug-14 01:11N 54°06' E 012°06'0 0.0
2017-Aug-13 15:29N 54°06' E 012°06'0 0.0
2017-Aug-13 14:19N 54°06' E 012°06'0 0.6
2017-Aug-13 14:00N 54°06' E 012°07'3 4.5
2017-Aug-13 13:14N 54°09' E 012°06'1 4.1
2017-Aug-13 13:00N 54°10' E 012°06'3 5.3
2017-Aug-13 12:30N 54°13' E 012°05'2 3.5
2017-Aug-13 11:52N 54°15' E 012°05'1 3.4
2017-Aug-13 11:27N 54°16' E 012°05'2 1.9
2017-Aug-13 10:14N 54°14' E 012°05'1 3.8
2017-Aug-13 10:00N 54°13' E 012°05'3 5.1
2017-Aug-13 09:29N 54°11' E 012°06'3 4.6
2017-Aug-13 08:47N 54°07' E 012°06'1 3.0
2017-Aug-13 08:28N 54°06' E 012°06'1 0.3
2017-Aug-13 05:47N 54°06' E 012°06'0 0.0
2017-Aug-13 05:29N 54°06' E 012°06'0 0.0
2017-Aug-13 04:56N 54°06' E 012°06'0 0.0
2017-Aug-13 01:20N 54°06' E 012°06'  

Dump ship's entire track history